createdAt,value
2023-09-13T00:08:47.421Z,100.00
2023-09-13T00:18:50.203Z,100.00
2023-09-13T00:28:52.335Z,100.00
2023-09-13T00:38:54.210Z,100.00
2023-09-13T00:48:56.809Z,100.00
2023-09-13T00:58:58.766Z,100.00
2023-09-13T01:09:05.108Z,100.00
2023-09-13T01:19:51.541Z,100.00
2023-09-13T01:29:54.452Z,100.00
2023-09-13T01:39:59.871Z,100.00
2023-09-13T01:50:04.137Z,100.00
2023-09-13T02:00:06.844Z,100.00
2023-09-13T02:10:09.945Z,100.00
2023-09-13T02:20:13.512Z,100.00
2023-09-13T02:30:15.303Z,100.00
2023-09-13T02:40:18.220Z,100.00
2023-09-13T02:50:20.036Z,100.00
2023-09-13T03:00:25.002Z,100.00
2023-09-13T03:10:30.191Z,100.00
2023-09-13T03:20:31.938Z,100.00
2023-09-13T03:30:35.788Z,100.00
2023-09-13T03:40:37.504Z,100.00
2023-09-13T03:50:39.236Z,100.00
2023-09-13T04:00:41.020Z,100.00
2023-09-13T04:10:42.801Z,100.00
2023-09-13T04:20:45.707Z,100.00
2023-09-13T04:30:49.647Z,100.00
2023-09-13T04:40:51.356Z,100.00
2023-09-13T04:50:53.173Z,100.00
2023-09-13T05:00:54.973Z,100.00
2023-09-13T05:10:56.757Z,100.00
2023-09-13T05:20:59.872Z,100.00
2023-09-13T05:31:02.146Z,100.00
2023-09-13T05:41:11.949Z,100.00
2023-09-13T05:51:13.753Z,100.00
2023-09-13T06:01:15.489Z,100.00
2023-09-13T06:11:20.644Z,100.00
2023-09-13T06:21:22.707Z,100.00
2023-09-13T06:31:33.140Z,100.00
2023-09-13T06:41:36.761Z,100.00
2023-09-13T07:11:48.345Z,72.42
2023-09-13T07:21:52.304Z,70.59
2023-09-13T07:31:54.150Z,60.66
2023-09-13T07:41:55.943Z,60.27
2023-09-13T07:51:57.680Z,59.19
2023-09-13T08:02:01.504Z,56.67
2023-09-13T08:12:04.759Z,51.50
2023-09-13T08:22:06.749Z,50.22
2023-09-13T08:32:08.794Z,49.93
2023-09-13T08:42:16.923Z,48.49
2023-09-13T08:52:19.335Z,42.47
2023-09-13T09:02:26.325Z,34.45
2023-09-13T09:12:28.940Z,31.28
2023-09-13T09:22:31.655Z,27.52
2023-09-13T09:32:39.577Z,25.48
2023-09-13T09:42:41.476Z,26.71
2023-09-13T09:52:44.529Z,26.01
2023-09-13T10:02:47.274Z,23.66
2023-09-13T10:12:52.238Z,21.62
2023-09-13T10:22:59.313Z,20.47
2023-09-13T10:33:04.950Z,20.25
2023-09-13T10:43:09.647Z,22.37
2023-09-13T10:53:15.299Z,24.95
2023-09-13T11:03:19.817Z,24.15
2023-09-13T11:13:32.761Z,21.27
2023-09-13T11:23:59.962Z,20.15
2023-09-13T11:34:06.072Z,18.46
2023-09-13T11:44:24.609Z,18.49
2023-09-13T11:54:30.388Z,18.89
2023-09-13T12:04:51.963Z,19.44
2023-09-13T12:15:01.815Z,18.05
2023-09-13T12:25:06.174Z,16.00
2023-09-13T12:35:08.343Z,16.12
2023-09-13T12:45:10.924Z,17.07
2023-09-13T12:55:12.786Z,16.29
2023-09-13T13:05:15.313Z,17.48
2023-09-13T13:15:17.431Z,16.10
2023-09-13T13:25:23.386Z,16.59
2023-09-13T13:35:25.592Z,15.71
2023-09-13T13:45:27.778Z,16.58
2023-09-13T13:55:31.097Z,17.76
2023-09-13T14:05:33.341Z,16.90
2023-09-13T14:15:38.745Z,17.29
2023-09-13T14:25:44.648Z,17.20
2023-09-13T14:35:47.777Z,20.75
2023-09-13T14:45:50.324Z,21.31
2023-09-13T14:55:58.867Z,24.62
2023-09-13T15:06:01.080Z,26.88
2023-09-13T15:16:05.126Z,28.19
2023-09-13T15:26:07.036Z,28.19
2023-09-13T15:36:08.786Z,27.48
2023-09-13T15:46:16.848Z,27.68
2023-09-13T15:56:19.496Z,28.11
2023-09-13T16:06:21.349Z,29.11
2023-09-13T16:16:28.531Z,29.64
2023-09-13T16:26:33.929Z,30.81
2023-09-13T16:36:36.349Z,32.01
2023-09-13T16:46:38.991Z,33.07
2023-09-13T16:56:41.316Z,35.44
2023-09-13T17:06:43.318Z,37.34
2023-09-13T17:16:48.324Z,40.54
2023-09-13T17:27:00.015Z,42.86
2023-09-13T17:37:10.171Z,44.64
2023-09-13T17:47:14.784Z,46.86
2023-09-13T17:57:18.232Z,49.73
2023-09-13T18:07:24.639Z,54.18
2023-09-13T18:17:35.093Z,55.71
2023-09-13T18:27:46.318Z,57.68
2023-09-13T18:37:50.504Z,61.43
2023-09-13T18:47:53.295Z,67.05
2023-09-13T18:57:56.286Z,71.87
2023-09-13T19:08:02.181Z,74.41
2023-09-13T19:18:05.286Z,77.70
2023-09-13T19:28:07.673Z,78.39
2023-09-13T19:38:23.735Z,78.41
2023-09-13T19:48:31.930Z,81.04
2023-09-13T19:58:37.933Z,83.24
2023-09-13T20:08:40.153Z,85.08
2023-09-13T20:18:43.865Z,87.39
2023-09-13T20:28:48.859Z,92.03
2023-09-13T20:38:51.855Z,94.45
2023-09-13T20:48:54.042Z,94.80
2023-09-13T20:58:56.102Z,99.53
2023-09-13T21:08:58.091Z,100.00
2023-09-13T21:19:01.532Z,100.00
2023-09-13T21:29:03.421Z,100.00
2023-09-13T21:39:05.724Z,99.52
2023-09-13T21:49:11.486Z,100.00
2023-09-13T21:59:15.239Z,100.00
2023-09-13T22:09:17.029Z,100.00
2023-09-13T22:19:18.809Z,100.00
2023-09-13T22:29:22.093Z,100.00
2023-09-13T22:39:23.928Z,100.00
2023-09-13T22:49:30.075Z,96.36
2023-09-13T22:59:34.089Z,97.14
2023-09-13T23:09:35.894Z,100.00
2023-09-13T23:19:37.744Z,100.00
2023-09-13T23:29:39.446Z,100.00
2023-09-13T23:39:41.320Z,100.00
2023-09-13T23:49:44.037Z,100.00
2023-09-13T23:59:47.543Z,100.00
